Time;durP1;ratioP1;P1;durP2;ratioP2;P2;SDS_P1;SDS_P2;PMS_P1;PMS_P2;Temp;Humidity;BMP_temperature;BMP_pressure;BME280_temperature;BME280_humidity;BME280_pressure;Samples;Min_cycle;Max_cycle;Signal;HPM_P1;HPM_P2
2024/01/28 00:01:17;;;;;;;30.30;12.20;;;2.90;99.90;;;;;;5014028;28;20078;-62
2024/01/28 00:03:42;;;;;;;25.42;11.32;;;3.00;99.90;;;;;;4936988;28;20062;-62
2024/01/28 00:06:08;;;;;;;23.13;10.45;;;3.00;99.90;;;;;;4948941;28;20078;-62
2024/01/28 00:08:34;;;;;;;24.23;11.00;;;3.00;99.90;;;;;;4945894;28;20067;-61
2024/01/28 00:11:00;;;;;;;24.65;11.40;;;3.00;99.90;;;;;;4995926;28;20055;-62
2024/01/28 00:13:26;;;;;;;27.63;11.38;;;3.00;99.90;;;;;;4932109;28;20142;-62
2024/01/28 00:15:52;;;;;;;27.25;11.98;;;3.00;99.90;;;;;;4954207;28;20061;-62
2024/01/28 00:18:19;;;;;;;23.40;11.30;;;3.00;99.90;;;;;;4955177;28;20043;-61
2024/01/28 00:20:45;;;;;;;31.23;11.75;;;3.00;99.90;;;;;;4936608;28;20046;-62
2024/01/28 00:23:11;;;;;;;24.30;10.30;;;3.00;99.90;;;;;;4934980;28;20046;-62
2024/01/28 00:25:37;;;;;;;26.48;10.73;;;3.00;99.90;;;;;;5011273;28;20055;-62
2024/01/28 00:28:03;;;;;;;25.42;11.18;;;2.90;99.90;;;;;;4938672;28;20051;-62
2024/01/28 00:30:32;;;;;;;20.67;10.95;;;2.90;99.90;;;;;;4933232;28;20483;-62
2024/01/28 00:32:58;;;;;;;25.80;10.25;;;2.90;99.90;;;;;;4951721;28;20043;-62
2024/01/28 00:35:24;;;;;;;23.42;9.73;;;2.90;99.90;;;;;;4946257;28;20050;-62
2024/01/28 00:37:50;;;;;;;27.38;10.35;;;2.80;99.90;;;;;;4952351;28;20047;-62
2024/01/28 00:40:15;;;;;;;24.83;10.10;;;2.90;99.90;;;;;;4939395;28;20070;-62
2024/01/28 00:42:41;;;;;;;31.42;11.13;;;2.90;99.90;;;;;;4942504;28;20045;-62
2024/01/28 00:45:07;;;;;;;24.10;10.10;;;2.90;99.90;;;;;;4946482;28;20105;-62
2024/01/28 00:47:33;;;;;;;38.08;12.57;;;2.90;99.90;;;;;;4944826;28;20047;-62
2024/01/28 00:49:58;;;;;;;25.73;10.48;;;2.90;99.90;;;;;;4938284;28;20051;-62
2024/01/28 00:52:24;;;;;;;17.00;9.27;;;3.00;99.90;;;;;;4942489;28;20056;-62
2024/01/28 00:54:50;;;;;;;23.13;9.75;;;3.00;99.90;;;;;;4937105;28;20526;-62
2024/01/28 00:57:15;;;;;;;23.30;9.98;;;2.90;99.90;;;;;;4941013;28;20043;-62
2024/01/28 00:59:41;;;;;;;24.70;10.40;;;2.90;99.90;;;;;;4907533;28;20054;-62
2024/01/28 01:02:07;;;;;;;20.10;10.00;;;2.90;99.90;;;;;;4935793;28;20043;-62
2024/01/28 01:04:32;;;;;;;21.77;8.75;;;2.90;99.90;;;;;;4936890;28;20046;-62
2024/01/28 01:06:58;;;;;;;18.73;9.00;;;2.90;99.90;;;;;;5011762;28;20039;-62
2024/01/28 01:09:24;;;;;;;19.25;9.45;;;2.90;99.90;;;;;;4947144;28;20051;-62
2024/01/28 01:11:50;;;;;;;22.85;9.40;;;2.90;99.90;;;;;;4940438;28;20514;-62
2024/01/28 01:14:16;;;;;;;24.88;9.32;;;3.00;99.90;;;;;;4943343;28;20081;-62
2024/01/28 01:16:41;;;;;;;17.63;7.80;;;2.90;99.90;;;;;;4954473;28;20043;-62
2024/01/28 01:19:07;;;;;;;20.33;8.50;;;2.90;99.90;;;;;;4927351;28;20039;-62
2024/01/28 01:21:33;;;;;;;20.27;9.40;;;2.90;99.90;;;;;;4958907;28;20121;-62
2024/01/28 01:23:58;;;;;;;17.60;8.18;;;3.00;99.90;;;;;;4935856;28;20502;-62
2024/01/28 01:26:24;;;;;;;17.20;7.80;;;2.90;99.90;;;;;;5010051;28;20051;-62
2024/01/28 01:28:50;;;;;;;21.05;7.97;;;3.00;99.90;;;;;;4931584;28;20148;-62
2024/01/28 01:31:16;;;;;;;24.38;8.18;;;3.00;99.90;;;;;;5006899;28;20039;-62
2024/01/28 01:33:42;;;;;;;22.23;8.27;;;3.00;99.90;;;;;;4941905;28;20049;-62
2024/01/28 01:36:08;;;;;;;16.15;7.93;;;3.00;99.90;;;;;;4955900;28;20074;-62
2024/01/28 01:38:33;;;;;;;19.73;7.63;;;3.00;99.90;;;;;;4928645;28;20043;-62
2024/01/28 01:40:59;;;;;;;22.90;8.05;;;3.00;99.90;;;;;;4953963;28;20046;-62
2024/01/28 01:43:25;;;;;;;21.75;8.23;;;3.00;99.90;;;;;;4936322;28;20408;-62
2024/01/28 01:45:52;;;;;;;24.98;9.13;;;3.00;99.90;;;;;;4920388;28;20404;-62
2024/01/28 01:48:18;;;;;;;20.70;7.93;;;3.00;99.90;;;;;;4938245;28;20051;-62
2024/01/28 01:50:45;;;;;;;18.13;7.95;;;3.10;99.90;;;;;;4994490;28;20037;-62
2024/01/28 01:53:11;;;;;;;18.25;7.75;;;3.10;99.90;;;;;;4941352;28;20070;-62
2024/01/28 01:55:39;;;;;;;21.08;7.05;;;3.10;99.90;;;;;;4950275;28;20081;-62
2024/01/28 01:58:06;;;;;;;16.33;7.30;;;3.10;99.90;;;;;;4939274;28;20085;-62
2024/01/28 02:00:32;;;;;;;22.17;8.38;;;3.10;99.90;;;;;;4942668;28;20521;-62
2024/01/28 02:02:58;;;;;;;22.65;8.40;;;3.10;99.90;;;;;;4939437;28;20051;-62
2024/01/28 02:05:24;;;;;;;21.08;7.78;;;3.20;99.90;;;;;;4952516;28;20039;-62
2024/01/28 02:07:50;;;;;;;21.70;7.78;;;3.10;99.90;;;;;;4977183;28;20128;-62
2024/01/28 02:10:16;;;;;;;16.70;7.40;;;3.10;99.90;;;;;;4927021;28;20510;-62
2024/01/28 02:12:49;;;;;;;19.58;8.63;;;3.20;99.90;;;;;;4944889;28;20054;-62
2024/01/28 02:15:15;;;;;;;15.85;7.63;;;3.20;99.90;;;;;;4934445;28;20071;-62
2024/01/28 02:17:41;;;;;;;17.85;6.60;;;3.20;99.90;;;;;;4959177;28;20040;-62
2024/01/28 02:20:07;;;;;;;18.58;7.13;;;3.20;99.90;;;;;;4936558;28;20050;-62
2024/01/28 02:22:33;;;;;;;14.38;6.88;;;3.20;99.90;;;;;;4952837;28;20056;-62
2024/01/28 02:24:59;;;;;;;21.20;7.65;;;3.30;99.90;;;;;;4953519;28;20391;-62
2024/01/28 02:27:25;;;;;;;16.58;7.82;;;3.30;99.90;;;;;;4945756;28;20106;-62
2024/01/28 02:29:51;;;;;;;22.65;7.82;;;3.30;99.90;;;;;;4920131;28;20100;-64
2024/01/28 02:32:17;;;;;;;17.95;7.25;;;3.30;99.90;;;;;;4953591;28;20414;-62
2024/01/28 02:34:43;;;;;;;15.27;6.82;;;3.30;99.90;;;;;;4954916;28;20064;-62
2024/01/28 02:37:10;;;;;;;21.73;7.25;;;3.30;99.90;;;;;;4940556;28;20046;-62
2024/01/28 02:39:39;;;;;;;19.17;7.22;;;3.40;99.90;;;;;;4937422;28;20051;-62
2024/01/28 02:42:06;;;;;;;14.88;6.97;;;3.40;99.90;;;;;;4990011;28;20051;-62
2024/01/28 02:44:32;;;;;;;17.10;7.07;;;3.40;99.90;;;;;;4932673;28;20050;-62
2024/01/28 02:47:01;;;;;;;22.48;7.90;;;3.40;99.90;;;;;;4940877;28;20046;-62
2024/01/28 02:49:27;;;;;;;23.08;8.70;;;3.40;99.90;;;;;;4945205;28;20047;-62
2024/01/28 02:51:53;;;;;;;21.85;8.68;;;3.50;99.90;;;;;;4968006;28;20039;-62
2024/01/28 02:54:19;;;;;;;19.65;8.52;;;3.40;99.90;;;;;;4939770;28;20035;-62
2024/01/28 02:56:45;;;;;;;18.63;7.75;;;3.40;99.90;;;;;;4942240;28;20608;-62
2024/01/28 02:59:11;;;;;;;19.85;8.45;;;3.50;99.90;;;;;;4993618;28;20035;-61
2024/01/28 03:01:49;;;;;;;19.60;7.95;;;3.40;99.90;;;;;;4940693;28;20069;-61
2024/01/28 03:04:15;;;;;;;22.00;8.82;;;3.40;99.90;;;;;;4946957;28;20046;-61
2024/01/28 03:06:42;;;;;;;19.85;9.10;;;3.40;99.90;;;;;;4950736;28;20043;-61
2024/01/28 03:09:08;;;;;;;21.35;9.05;;;3.40;99.90;;;;;;4934975;28;20403;-61
2024/01/28 03:11:35;;;;;;;21.92;10.15;;;3.30;99.90;;;;;;4938884;28;20122;-61
2024/01/28 03:14:00;;;;;;;21.83;9.57;;;3.40;99.90;;;;;;4947091;28;20106;-61
2024/01/28 03:16:26;;;;;;;26.73;10.40;;;3.30;99.90;;;;;;4946316;28;20041;-61
2024/01/28 03:18:52;;;;;;;19.60;9.48;;;3.20;99.90;;;;;;4930386;28;20043;-61
2024/01/28 03:21:18;;;;;;;20.85;10.20;;;3.30;99.90;;;;;;4927600;28;20124;-61
2024/01/28 03:23:43;;;;;;;18.10;9.23;;;3.30;99.90;;;;;;4938086;28;20573;-61
2024/01/28 03:26:12;;;;;;;20.70;10.45;;;3.30;99.90;;;;;;4942533;28;20044;-61
2024/01/28 03:28:38;;;;;;;22.23;9.30;;;3.20;99.90;;;;;;4959077;28;20045;-61
2024/01/28 03:31:04;;;;;;;23.88;9.80;;;3.20;99.90;;;;;;4936498;28;20051;-61
2024/01/28 03:33:30;;;;;;;22.42;9.43;;;3.20;99.90;;;;;;4944050;28;20044;-61
2024/01/28 03:35:56;;;;;;;25.13;10.70;;;3.20;99.90;;;;;;4943705;28;20039;-60
2024/01/28 03:38:22;;;;;;;20.92;9.57;;;3.20;99.90;;;;;;4947315;28;20044;-60
2024/01/28 03:40:47;;;;;;;22.90;9.73;;;3.20;99.90;;;;;;4954431;28;20126;-61
2024/01/28 03:43:13;;;;;;;25.73;10.25;;;3.10;99.90;;;;;;4916981;28;20570;-61
2024/01/28 03:45:39;;;;;;;16.50;9.32;;;3.20;99.90;;;;;;4941649;28;20567;-61
2024/01/28 03:48:05;;;;;;;22.17;9.57;;;3.20;99.90;;;;;;4928623;28;20158;-61
2024/01/28 03:50:31;;;;;;;21.38;9.60;;;3.20;99.90;;;;;;4942468;28;20126;-61
2024/01/28 03:52:57;;;;;;;19.30;8.82;;;3.20;99.90;;;;;;4964498;28;20122;-61
2024/01/28 03:55:22;;;;;;;24.38;10.40;;;3.20;99.90;;;;;;4947037;28;20043;-61
2024/01/28 03:57:48;;;;;;;20.63;9.30;;;3.10;99.90;;;;;;4913812;28;20541;-60
2024/01/28 04:00:15;;;;;;;23.17;9.55;;;3.20;99.90;;;;;;4959774;28;20040;-61
2024/01/28 04:02:41;;;;;;;16.40;9.85;;;3.10;99.90;;;;;;4923954;28;20126;-61
2024/01/28 04:05:07;;;;;;;19.02;9.98;;;3.10;99.90;;;;;;4938706;28;20062;-61
2024/01/28 04:07:33;;;;;;;23.25;10.00;;;3.10;99.90;;;;;;4955034;28;20417;-60
2024/01/28 04:09:59;;;;;;;19.67;10.38;;;3.10;99.90;;;;;;4949862;28;20047;-61
2024/01/28 04:12:25;;;;;;;20.05;9.48;;;3.10;99.90;;;;;;4952392;28;20255;-61
2024/01/28 04:14:50;;;;;;;25.77;11.27;;;3.10;99.90;;;;;;4967610;28;20047;-59
2024/01/28 04:17:16;;;;;;;22.05;10.00;;;3.00;99.90;;;;;;4953169;28;20031;-59
2024/01/28 04:19:42;;;;;;;20.80;10.32;;;3.00;99.90;;;;;;4945066;28;20093;-61
2024/01/28 04:22:11;;;;;;;17.90;10.02;;;2.90;99.90;;;;;;4948275;28;20032;-60
2024/01/28 04:24:37;;;;;;;21.60;10.93;;;3.00;99.90;;;;;;5017317;28;20049;-61
2024/01/28 04:27:03;;;;;;;21.25;10.00;;;3.00;99.90;;;;;;4940459;28;20101;-61
2024/01/28 04:29:29;;;;;;;24.00;10.73;;;2.90;99.90;;;;;;5010575;28;20529;-61
2024/01/28 04:31:55;;;;;;;25.38;11.40;;;2.90;99.90;;;;;;4916948;28;20043;-61
2024/01/28 04:34:24;;;;;;;23.55;10.32;;;2.90;99.90;;;;;;4949787;28;20443;-61
2024/01/28 04:36:50;;;;;;;23.00;11.93;;;2.90;99.90;;;;;;4912605;28;20039;-61
2024/01/28 04:39:16;;;;;;;22.25;10.90;;;2.90;99.90;;;;;;4931782;28;20050;-61
2024/01/28 04:41:41;;;;;;;20.23;10.82;;;2.80;99.90;;;;;;4946269;28;20067;-61
2024/01/28 04:44:08;;;;;;;28.85;11.30;;;2.80;99.90;;;;;;4927151;28;20126;-61
2024/01/28 04:46:34;;;;;;;26.02;10.45;;;2.80;99.90;;;;;;4941875;28;20053;-61
2024/01/28 04:49:03;;;;;;;24.42;11.82;;;2.80;99.90;;;;;;4973128;28;20128;-61
2024/01/28 04:51:30;;;;;;;25.15;11.13;;;2.70;99.90;;;;;;4951430;28;20048;-61
2024/01/28 04:53:57;;;;;;;22.00;10.88;;;2.70;99.90;;;;;;4940375;28;20390;-61
2024/01/28 04:56:23;;;;;;;28.50;11.35;;;2.70;99.90;;;;;;5010987;28;20042;-61
2024/01/28 04:58:49;;;;;;;22.58;10.55;;;2.70;99.90;;;;;;4929034;28;20457;-61
2024/01/28 05:01:15;;;;;;;17.27;10.00;;;2.70;99.90;;;;;;4940133;28;20073;-61
2024/01/28 05:03:40;;;;;;;25.30;11.68;;;2.70;99.90;;;;;;5008690;28;20727;-60
2024/01/28 05:06:07;;;;;;;18.98;10.73;;;2.60;99.90;;;;;;4972360;28;20099;-60
2024/01/28 05:08:33;;;;;;;25.17;11.98;;;2.60;99.90;;;;;;4948295;28;20039;-61
2024/01/28 05:10:58;;;;;;;23.05;10.77;;;2.60;99.90;;;;;;4939619;28;20043;-61
2024/01/28 05:13:24;;;;;;;23.08;11.60;;;2.60;99.90;;;;;;4943758;28;20037;-61
2024/01/28 05:15:50;;;;;;;23.40;10.65;;;2.50;99.90;;;;;;4946603;28;20039;-60
2024/01/28 05:18:16;;;;;;;20.40;11.23;;;2.50;99.90;;;;;;4925035;28;20043;-61
2024/01/28 05:20:42;;;;;;;24.45;12.27;;;2.50;99.90;;;;;;5014099;28;20660;-60
2024/01/28 05:23:08;;;;;;;21.88;11.45;;;2.50;99.90;;;;;;4945896;28;20061;-60
2024/01/28 05:25:34;;;;;;;19.70;11.00;;;2.50;99.90;;;;;;5014283;28;20043;-61
2024/01/28 05:28:00;;;;;;;19.67;11.20;;;2.50;99.90;;;;;;4946444;28;20408;-61
2024/01/28 05:30:25;;;;;;;23.80;11.68;;;2.50;99.90;;;;;;4938838;28;20055;-60
2024/01/28 05:32:51;;;;;;;22.00;11.02;;;2.50;99.90;;;;;;4979143;28;20040;-61
2024/01/28 05:35:17;;;;;;;24.15;10.63;;;2.40;99.90;;;;;;4931526;28;20029;-61
2024/01/28 05:37:43;;;;;;;26.13;12.68;;;2.50;99.90;;;;;;5015195;28;20083;-61
2024/01/28 05:40:09;;;;;;;22.80;11.25;;;2.40;99.90;;;;;;4945745;28;20477;-61
2024/01/28 05:42:35;;;;;;;24.90;12.18;;;2.40;99.90;;;;;;4949310;28;20113;-61
2024/01/28 05:45:00;;;;;;;23.90;12.10;;;2.40;99.90;;;;;;4938252;28;20490;-61
2024/01/28 05:47:26;;;;;;;19.50;12.10;;;2.40;99.90;;;;;;4945449;28;20138;-61
2024/01/28 05:49:52;;;;;;;20.83;12.10;;;2.40;99.90;;;;;;4952810;28;20494;-61
2024/01/28 05:52:18;;;;;;;26.55;12.55;;;2.40;99.90;;;;;;4982682;28;20033;-61
2024/01/28 05:54:44;;;;;;;20.95;11.88;;;2.30;99.90;;;;;;4959448;28;20199;-61
2024/01/28 05:57:10;;;;;;;22.33;11.75;;;2.40;99.90;;;;;;4943708;28;20568;-61
2024/01/28 05:59:36;;;;;;;20.40;11.80;;;2.30;99.90;;;;;;4912216;28;20789;-61
2024/01/28 06:02:03;;;;;;;24.00;13.35;;;2.30;99.90;;;;;;4941137;28;20483;-60
2024/01/28 06:04:29;;;;;;;24.55;12.45;;;2.30;99.90;;;;;;4956826;28;20073;-61
2024/01/28 06:06:55;;;;;;;20.95;11.65;;;2.30;99.90;;;;;;4957124;28;20043;-60
2024/01/28 06:09:21;;;;;;;23.65;11.55;;;2.30;99.90;;;;;;4959776;28;20411;-61
2024/01/28 06:11:47;;;;;;;20.58;10.77;;;2.30;99.90;;;;;;5008963;28;20101;-60
2024/01/28 06:14:12;;;;;;;21.98;12.30;;;2.30;99.90;;;;;;4939212;28;20051;-60
2024/01/28 06:16:38;;;;;;;25.20;11.85;;;2.20;99.90;;;;;;4976816;28;20043;-61
2024/01/28 06:19:04;;;;;;;20.30;10.88;;;2.30;99.90;;;;;;4934019;28;20126;-61
2024/01/28 06:21:30;;;;;;;24.45;11.60;;;2.30;99.90;;;;;;5024256;28;20119;-61
2024/01/28 06:23:56;;;;;;;23.02;11.90;;;2.30;99.90;;;;;;4959843;28;20098;-61
2024/01/28 06:26:22;;;;;;;27.60;12.73;;;2.20;99.90;;;;;;4943005;28;20077;-61
2024/01/28 06:28:48;;;;;;;21.85;12.13;;;2.20;99.90;;;;;;4962354;28;20048;-61
2024/01/28 06:31:14;;;;;;;20.95;12.93;;;2.20;99.90;;;;;;4937823;28;20121;-61
2024/01/28 06:33:41;;;;;;;23.67;12.98;;;2.20;99.90;;;;;;4969065;28;20046;-60
2024/01/28 06:36:07;;;;;;;18.98;11.07;;;2.20;99.90;;;;;;5011266;28;20128;-61
2024/01/28 06:38:33;;;;;;;19.25;11.43;;;2.20;99.90;;;;;;4992270;28;20047;-60
2024/01/28 06:40:59;;;;;;;19.15;10.88;;;2.20;99.90;;;;;;4934437;28;20049;-61
2024/01/28 06:43:25;;;;;;;23.73;11.88;;;2.20;99.90;;;;;;4967935;28;20473;-61
2024/01/28 06:45:52;;;;;;;23.75;11.23;;;2.10;99.90;;;;;;4937844;28;20533;-61
2024/01/28 06:48:17;;;;;;;23.45;11.55;;;2.10;99.90;;;;;;4947221;28;20039;-61
2024/01/28 06:50:44;;;;;;;22.90;11.00;;;2.20;99.90;;;;;;4946729;28;20069;-60
2024/01/28 06:53:10;;;;;;;23.15;11.95;;;2.10;99.90;;;;;;4944512;28;20046;-61
2024/01/28 06:55:36;;;;;;;21.52;11.70;;;2.10;99.90;;;;;;4992019;28;20414;-61
2024/01/28 06:58:01;;;;;;;16.67;10.63;;;2.10;99.90;;;;;;5010347;28;20362;-61
2024/01/28 07:00:28;;;;;;;21.35;11.75;;;2.10;99.90;;;;;;4919424;28;20039;-61
2024/01/28 07:02:54;;;;;;;18.90;11.13;;;2.10;99.90;;;;;;5016840;28;20044;-61
2024/01/28 07:05:23;;;;;;;21.63;12.15;;;2.10;99.90;;;;;;4934136;28;20067;-61
2024/01/28 07:07:49;;;;;;;19.75;10.43;;;2.10;99.90;;;;;;5008116;28;20051;-61
2024/01/28 07:10:15;;;;;;;18.65;10.65;;;2.10;99.90;;;;;;4916817;28;20041;-61
2024/01/28 07:12:41;;;;;;;21.35;11.00;;;2.10;99.90;;;;;;4930170;28;20135;-61
2024/01/28 07:15:08;;;;;;;22.10;10.77;;;2.10;99.90;;;;;;5008278;28;20078;-61
2024/01/28 07:17:34;;;;;;;19.35;10.48;;;2.10;99.90;;;;;;4948070;28;20038;-60
2024/01/28 07:20:00;;;;;;;19.50;9.68;;;2.10;99.90;;;;;;4925233;28;20040;-59
2024/01/28 07:22:25;;;;;;;20.40;10.63;;;2.10;99.90;;;;;;4945020;28;20462;-60
2024/01/28 07:24:51;;;;;;;20.40;10.48;;;2.10;99.90;;;;;;4944221;28;20061;-61
2024/01/28 07:27:17;;;;;;;20.08;10.32;;;2.10;99.90;;;;;;4959817;28;20437;-60
2024/01/28 07:29:43;;;;;;;23.25;11.00;;;2.10;99.90;;;;;;5011169;28;20101;-59
2024/01/28 07:32:13;;;;;;;22.77;10.80;;;2.20;99.90;;;;;;4929315;28;20057;-60
2024/01/28 07:34:42;;;;;;;21.08;10.35;;;2.10;99.90;;;;;;4946430;28;20588;-61
2024/01/28 07:37:08;;;;;;;19.00;9.48;;;2.10;99.90;;;;;;4943126;28;20042;-61
2024/01/28 08:55:07;;;;;;;18.88;8.32;;;2.90;99.90;;;;;;4974131;28;20054;-62
2024/01/28 08:57:32;;;;;;;17.08;8.00;;;3.00;99.90;;;;;;5021132;28;20127;-61
2024/01/28 08:59:58;;;;;;;18.10;8.13;;;3.10;99.90;;;;;;4984667;28;20507;-61
2024/01/28 09:02:24;;;;;;;12.60;7.45;;;3.20;99.90;;;;;;4943587;28;20052;-61
2024/01/28 09:04:49;;;;;;;17.17;7.38;;;3.30;99.90;;;;;;4931394;28;20047;-61
2024/01/28 09:07:15;;;;;;;13.55;7.15;;;3.40;99.90;;;;;;4931966;28;20122;-61
2024/01/28 10:10:02;;;;;;;14.90;6.00;;;4.90;99.90;;;;;;4941571;28;20039;-62
2024/01/28 10:12:31;;;;;;;12.77;5.75;;;5.00;99.90;;;;;;4939672;28;20421;-62
2024/01/28 10:14:57;;;;;;;11.52;5.80;;;5.10;99.90;;;;;;4935636;28;20402;-62
2024/01/28 10:17:23;;;;;;;10.88;5.82;;;5.20;99.90;;;;;;4942745;28;20039;-62
2024/01/28 10:19:49;;;;;;;13.60;5.88;;;5.40;99.90;;;;;;4936392;28;20053;-62
2024/01/28 10:22:14;;;;;;;17.63;5.78;;;5.50;99.90;;;;;;4923705;28;20046;-62
2024/01/28 10:24:42;;;;;;;15.75;5.93;;;5.50;99.90;;;;;;4944413;28;20117;-62
2024/01/28 10:27:08;;;;;;;10.43;5.53;;;5.60;99.90;;;;;;4937561;28;21737;-62
2024/01/28 10:29:34;;;;;;;11.90;6.05;;;5.70;99.90;;;;;;4924085;28;20047;-62
2024/01/28 10:32:03;;;;;;;10.77;5.35;;;5.70;99.90;;;;;;4926026;28;20486;-62
2024/01/28 10:49:36;;;;;;;12.10;5.50;;;6.30;99.90;;;;;;4934531;28;20160;-62
2024/01/28 10:52:02;;;;;;;11.55;5.97;;;6.40;99.90;;;;;;4941407;28;20047;-62
2024/01/28 10:54:28;;;;;;;13.15;5.68;;;6.50;99.90;;;;;;4928854;28;20513;-62
2024/01/28 10:56:55;;;;;;;14.95;5.65;;;6.60;99.90;;;;;;4930945;28;20094;-61
2024/01/28 10:59:22;;;;;;;12.98;5.63;;;6.70;99.90;;;;;;4949002;28;20043;-62
2024/01/28 11:01:49;;;;;;;12.85;5.93;;;6.80;99.90;;;;;;4936215;28;20081;-62
2024/01/28 11:04:15;;;;;;;15.68;5.32;;;6.90;99.90;;;;;;4925029;28;20133;-61
2024/01/28 11:06:41;;;;;;;11.32;5.10;;;6.80;99.90;;;;;;4915171;28;20051;-62
2024/01/28 11:09:07;;;;;;;9.40;5.45;;;6.90;99.90;;;;;;4920740;28;20059;-62
2024/01/28 11:11:33;;;;;;;15.00;6.43;;;6.90;99.90;;;;;;4943296;28;20434;-62
2024/01/28 11:14:04;;;;;;;62.83;36.80;;;6.90;99.90;;;;;;4947735;28;20062;-61
2024/01/28 11:16:30;;;;;;;38.88;22.52;;;7.10;99.90;;;;;;5006634;28;20036;-62
2024/01/28 11:19:07;;;;;;;13.52;6.80;;;7.20;99.90;;;;;;4926807;28;20036;-62
2024/01/28 11:21:38;;;;;;;11.35;7.03;;;7.30;99.90;;;;;;4918060;28;20077;-62
2024/01/28 11:24:11;;;;;;;16.05;6.82;;;7.40;99.90;;;;;;4972296;28;20101;-62
2024/01/28 11:26:45;;;;;;;13.23;5.50;;;7.50;99.90;;;;;;4934195;28;20731;-62
2024/01/28 11:29:11;;;;;;;10.18;5.15;;;7.60;99.90;;;;;;4937851;28;20833;-62
2024/01/28 11:31:41;;;;;;;10.55;6.00;;;7.70;99.90;;;;;;4965865;28;20522;-62
2024/01/28 11:34:15;;;;;;;10.43;5.45;;;7.80;99.90;;;;;;4945449;28;20490;-62
2024/01/28 11:36:47;;;;;;;13.68;5.60;;;7.90;99.90;;;;;;4927065;28;20043;-62
2024/01/28 11:39:15;;;;;;;14.82;6.28;;;8.00;99.90;;;;;;4944690;28;20047;-62
2024/01/28 11:41:45;;;;;;;14.50;7.47;;;8.10;99.90;;;;;;4939595;28;20050;-62
2024/01/28 11:44:12;;;;;;;13.00;6.43;;;8.20;99.90;;;;;;4928574;28;20229;-62
2024/01/28 11:46:39;;;;;;;11.60;6.25;;;8.30;99.90;;;;;;5009690;28;20130;-62
2024/01/28 11:49:05;;;;;;;14.85;8.32;;;8.40;99.90;;;;;;4934448;28;20092;-62
2024/01/28 11:51:33;;;;;;;19.95;9.50;;;8.40;99.90;;;;;;4928785;28;20058;-62
2024/01/28 11:54:00;;;;;;;13.45;6.95;;;8.60;99.90;;;;;;4936042;28;20418;-62
2024/01/28 11:56:33;;;;;;;13.95;7.13;;;8.60;99.90;;;;;;4936823;28;20066;-62
2024/01/28 11:59:01;;;;;;;32.95;21.35;;;8.70;99.90;;;;;;4939021;28;20039;-62
2024/01/28 12:01:27;;;;;;;12.27;7.38;;;8.80;99.90;;;;;;4943310;28;20051;-62
2024/01/28 12:03:57;;;;;;;11.18;5.35;;;8.90;99.90;;;;;;4930981;28;20090;-62
2024/01/28 12:06:26;;;;;;;12.63;7.18;;;8.90;99.90;;;;;;4959268;28;20039;-62
2024/01/28 12:08:52;;;;;;;8.93;6.93;;;9.00;99.90;;;;;;4937766;28;20047;-62
2024/01/28 12:11:21;;;;;;;10.98;5.03;;;9.00;99.90;;;;;;4942233;28;20079;-62
2024/01/28 12:13:48;;;;;;;9.13;5.10;;;9.00;99.90;;;;;;4929304;28;20039;-62
2024/01/28 12:16:16;;;;;;;7.60;4.22;;;9.10;99.90;;;;;;4928339;28;20669;-62
2024/01/28 12:18:43;;;;;;;9.65;4.43;;;9.10;99.90;;;;;;4936771;28;20071;-62
2024/01/28 12:21:23;;;;;;;7.03;3.75;;;9.00;99.90;;;;;;4933138;28;20051;-61
2024/01/28 12:23:57;;;;;;;10.10;4.22;;;9.10;99.90;;;;;;4948381;28;20043;-61
2024/01/28 12:26:23;;;;;;;8.80;4.55;;;9.20;99.90;;;;;;4927964;28;20078;-62
2024/01/28 12:28:50;;;;;;;8.60;3.80;;;9.30;99.90;;;;;;5011676;28;20495;-61
2024/01/28 12:31:19;;;;;;;7.28;3.88;;;9.30;99.90;;;;;;4937271;28;20059;-62
2024/01/28 12:33:45;;;;;;;8.38;4.35;;;9.40;99.90;;;;;;4946428;28;20046;-61
2024/01/28 12:36:11;;;;;;;9.25;4.28;;;9.40;99.90;;;;;;4933338;28;20501;-62
2024/01/28 12:38:38;;;;;;;11.40;4.93;;;9.50;99.90;;;;;;4970582;28;20038;-62
2024/01/28 12:41:07;;;;;;;11.05;4.10;;;9.50;99.90;;;;;;4944251;28;20438;-62
2024/01/28 12:43:33;;;;;;;9.05;4.40;;;9.40;99.90;;;;;;4936952;28;20047;-62
2024/01/28 12:46:00;;;;;;;7.70;3.97;;;9.40;99.90;;;;;;4954256;28;20127;-62
2024/01/28 12:48:25;;;;;;;8.77;4.03;;;9.40;99.90;;;;;;4912325;28;20063;-62
2024/01/28 12:50:51;;;;;;;8.05;3.72;;;9.40;99.90;;;;;;4947842;28;20045;-61
2024/01/28 12:53:17;;;;;;;7.43;3.33;;;9.30;99.90;;;;;;4950504;28;20043;-62
2024/01/28 12:55:44;;;;;;;11.32;3.65;;;9.30;99.90;;;;;;4950250;28;20564;-61
2024/01/28 12:58:10;;;;;;;8.52;3.80;;;9.40;99.90;;;;;;4945894;28;20043;-62
2024/01/28 13:00:36;;;;;;;8.52;5.35;;;9.30;99.90;;;;;;4938047;28;20097;-62
2024/01/28 13:03:03;;;;;;;8.52;4.15;;;9.30;99.90;;;;;;5006074;28;20043;-62
2024/01/28 13:05:29;;;;;;;6.32;3.25;;;9.40;99.90;;;;;;4964532;28;20055;-62
2024/01/28 13:07:55;;;;;;;7.40;3.03;;;9.30;99.90;;;;;;4958914;28;20443;-62
2024/01/28 13:10:20;;;;;;;9.10;3.47;;;9.20;99.90;;;;;;4953548;28;20047;-62
2024/01/28 13:12:46;;;;;;;8.50;3.67;;;9.10;99.90;;;;;;4950993;28;20105;-62
2024/01/28 13:15:12;;;;;;;11.10;3.45;;;9.20;99.90;;;;;;4917510;28;20067;-62
2024/01/28 13:17:39;;;;;;;7.95;3.65;;;9.20;99.90;;;;;;4950687;28;20050;-62
2024/01/28 13:20:07;;;;;;;6.22;3.10;;;9.20;99.90;;;;;;4926009;28;20051;-62
2024/01/28 13:22:33;;;;;;;8.15;3.85;;;9.10;99.90;;;;;;4938321;28;20055;-62
2024/01/28 13:24:59;;;;;;;7.88;3.22;;;9.10;99.90;;;;;;4917238;28;20093;-62
2024/01/28 13:27:25;;;;;;;6.97;3.90;;;9.10;99.90;;;;;;4959210;28;20418;-61
2024/01/28 13:29:51;;;;;;;9.57;3.33;;;9.10;99.90;;;;;;4945543;28;20043;-61
2024/01/28 13:32:18;;;;;;;7.43;3.50;;;9.00;99.90;;;;;;4913165;28;20046;-62
2024/01/28 13:34:44;;;;;;;10.02;3.45;;;9.00;99.90;;;;;;4947006;28;20047;-62
2024/01/28 13:37:11;;;;;;;8.70;4.03;;;8.90;99.90;;;;;;4928843;28;20074;-62
2024/01/28 13:39:38;;;;;;;6.57;2.88;;;8.90;99.90;;;;;;4945733;28;20043;-62
2024/01/28 13:42:04;;;;;;;9.98;3.60;;;8.90;99.90;;;;;;4937981;28;20047;-62
2024/01/28 13:44:29;;;;;;;8.43;3.95;;;8.90;99.90;;;;;;4969572;28;20098;-62
2024/01/28 13:46:58;;;;;;;11.10;3.40;;;8.90;99.90;;;;;;4947520;28;20164;-62
2024/01/28 13:49:26;;;;;;;8.52;3.28;;;8.80;99.90;;;;;;4928091;28;20055;-62
2024/01/28 13:51:52;;;;;;;6.93;2.92;;;8.80;99.90;;;;;;4953646;28;20050;-62
2024/01/28 13:54:18;;;;;;;7.88;2.70;;;8.80;99.90;;;;;;4936531;28;20470;-62
2024/01/28 13:56:44;;;;;;;7.97;3.05;;;8.80;99.90;;;;;;4931580;28;20051;-60
2024/01/28 13:59:10;;;;;;;6.47;2.72;;;8.80;99.90;;;;;;4930879;28;20031;-62
2024/01/28 14:01:36;;;;;;;7.55;3.08;;;8.80;99.90;;;;;;4936664;28;20066;-62
2024/01/28 14:04:02;;;;;;;7.05;2.70;;;8.80;99.90;;;;;;4927993;28;20887;-62
2024/01/28 14:06:28;;;;;;;5.97;3.20;;;8.80;99.90;;;;;;4912294;28;21066;-61
2024/01/28 14:08:54;;;;;;;7.60;2.88;;;8.70;99.90;;;;;;4921201;28;20090;-62
2024/01/28 14:11:20;;;;;;;6.20;3.15;;;8.70;99.90;;;;;;4946368;28;20082;-61
2024/01/28 14:13:48;;;;;;;6.53;3.25;;;8.70;99.90;;;;;;4934579;28;20900;-62
2024/01/28 14:16:14;;;;;;;6.70;3.00;;;8.70;99.90;;;;;;4944200;28;20046;-62
2024/01/28 14:18:40;;;;;;;6.93;3.10;;;8.60;99.90;;;;;;4956978;28;20044;-62
2024/01/28 14:21:06;;;;;;;6.57;2.70;;;8.60;99.90;;;;;;4943491;28;20043;-62
2024/01/28 14:23:33;;;;;;;7.80;2.97;;;8.60;99.90;;;;;;4944411;28;20081;-61
2024/01/28 14:25:59;;;;;;;7.90;3.15;;;8.60;99.90;;;;;;4997893;28;20043;-62
2024/01/28 14:28:24;;;;;;;8.15;2.97;;;8.60;99.90;;;;;;5013076;28;20486;-62
2024/01/28 14:30:50;;;;;;;6.18;3.33;;;8.60;99.90;;;;;;4925322;29;20043;-62
2024/01/28 14:33:16;;;;;;;14.57;4.28;;;8.50;99.90;;;;;;4950421;28;20045;-62
2024/01/28 14:35:42;;;;;;;7.93;2.45;;;8.50;99.90;;;;;;4947510;28;20027;-61
2024/01/28 14:38:08;;;;;;;6.38;2.65;;;8.50;99.90;;;;;;4927803;28;20043;-62
2024/01/28 14:40:34;;;;;;;6.60;2.78;;;8.50;99.90;;;;;;4941318;28;20066;-61
2024/01/28 14:43:00;;;;;;;6.47;3.05;;;8.40;99.90;;;;;;4929531;28;20494;-61
2024/01/28 14:45:26;;;;;;;6.53;2.90;;;8.40;99.90;;;;;;4943589;28;20051;-62
2024/01/28 14:47:53;;;;;;;5.53;2.55;;;8.40;99.90;;;;;;4990678;28;20051;-61
2024/01/28 14:50:20;;;;;;;9.30;2.63;;;8.40;99.90;;;;;;4942895;28;20398;-62
2024/01/28 14:52:46;;;;;;;5.70;2.65;;;8.40;99.90;;;;;;4937573;28;20048;-62
2024/01/28 14:55:12;;;;;;;6.32;2.72;;;8.30;99.90;;;;;;4956029;28;20066;-62
2024/01/28 14:57:38;;;;;;;7.75;2.83;;;8.40;99.90;;;;;;4947965;28;20061;-62
2024/01/28 15:00:05;;;;;;;6.90;2.75;;;8.30;99.90;;;;;;4945745;28;20043;-63
2024/01/28 15:02:31;;;;;;;6.40;2.85;;;8.30;99.90;;;;;;4964106;28;20151;-63
2024/01/28 15:04:57;;;;;;;7.38;2.47;;;8.30;99.90;;;;;;4953912;28;20066;-63
2024/01/28 15:07:23;;;;;;;7.82;3.10;;;8.30;99.90;;;;;;4921717;28;20514;-64
2024/01/28 15:09:51;;;;;;;7.70;2.50;;;8.30;99.90;;;;;;4935550;28;20337;-63
2024/01/28 15:12:17;;;;;;;5.82;2.33;;;8.20;99.90;;;;;;4944015;28;20044;-63